Time;durP1;ratioP1;P1;durP2;ratioP2;P2;SDS_P1;SDS_P2;PMS_P1;PMS_P2;Temp;Humidity;BMP_temperature;BMP_pressure;BME280_temperature;BME280_humidity;BME280_pressure;Samples;Min_cycle;Max_cycle;Signal;HPM_P1;HPM_P2
2022/09/09 00:01:53;;;;;;;19.98;15.55;;;14.70;99.90;;;;;;5079583;28;20067;-66
2022/09/09 00:04:30;;;;;;;21.63;16.52;;;14.90;99.90;;;;;;5070248;28;20048;-66
2022/09/09 00:07:24;;;;;;;21.05;17.25;;;14.70;99.90;;;;;;5073354;28;20471;-67
2022/09/09 00:10:25;;;;;;;21.45;16.40;;;14.80;99.90;;;;;;5073912;28;20141;-69
2022/09/09 00:13:16;;;;;;;21.00;17.20;;;14.80;99.90;;;;;;5072996;28;20043;-69
2022/09/09 00:16:13;;;;;;;22.17;17.38;;;14.60;99.90;;;;;;5073882;28;20110;-67
2022/09/09 00:19:05;;;;;;;18.65;16.02;;;14.50;99.90;;;;;;5072555;28;20498;-67
2022/09/09 00:21:35;;;;;;;23.17;18.27;;;14.50;99.90;;;;;;5073961;28;20488;-67
2022/09/09 00:24:14;;;;;;;21.85;17.83;;;14.30;99.90;;;;;;5074058;28;20100;-67
2022/09/09 00:26:46;;;;;;;22.35;18.85;;;14.50;99.90;;;;;;5073379;28;20047;-67
2022/09/09 00:29:12;;;;;;;24.02;17.30;;;14.30;99.90;;;;;;5079392;28;20243;-68
2022/09/09 00:31:38;;;;;;;28.10;20.65;;;14.40;99.90;;;;;;5086789;28;20050;-67
2022/09/09 00:34:13;;;;;;;23.83;19.40;;;14.20;99.90;;;;;;5093040;28;20056;-68
2022/09/09 00:36:40;;;;;;;26.25;20.30;;;14.20;99.90;;;;;;5093001;28;20055;-67
2022/09/09 00:39:15;;;;;;;32.75;22.25;;;14.10;99.90;;;;;;5092901;28;20621;-66
2022/09/09 00:42:03;;;;;;;25.45;20.42;;;14.30;99.90;;;;;;5092847;28;20055;-67
2022/09/09 00:44:53;;;;;;;26.83;21.90;;;14.10;99.90;;;;;;5090670;28;20411;-66
2022/09/09 00:47:30;;;;;;;29.02;21.35;;;14.30;99.90;;;;;;5058382;28;20052;-67
2022/09/09 00:50:17;;;;;;;31.40;22.33;;;14.00;99.90;;;;;;5070970;28;20055;-68
2022/09/09 00:52:59;;;;;;;25.65;21.00;;;14.20;99.90;;;;;;5071165;28;20087;-68
2022/09/09 00:55:50;;;;;;;36.13;23.15;;;14.10;99.90;;;;;;5072055;28;20355;-68
2022/09/09 00:58:15;;;;;;;31.60;23.17;;;14.20;99.90;;;;;;5072398;28;20446;-65
2022/09/09 01:00:49;;;;;;;25.60;21.05;;;14.10;99.90;;;;;;5069122;28;20051;-66
2022/09/09 01:03:37;;;;;;;24.38;20.30;;;13.90;99.90;;;;;;5070591;28;20036;-67
2022/09/09 01:06:14;;;;;;;23.33;19.20;;;13.90;99.90;;;;;;5070278;28;20852;-69
2022/09/09 01:08:59;;;;;;;31.05;20.52;;;13.90;99.90;;;;;;5070366;28;20412;-70
2022/09/09 01:11:43;;;;;;;24.88;19.42;;;13.80;99.90;;;;;;5070409;28;20109;-67
2022/09/09 01:14:33;;;;;;;28.23;22.10;;;14.00;99.90;;;;;;5070309;28;20487;-69
2022/09/09 01:17:23;;;;;;;25.88;20.05;;;13.80;99.90;;;;;;5070283;28;20059;-67
2022/09/09 01:19:55;;;;;;;32.85;21.55;;;13.90;99.90;;;;;;5068197;28;20335;-67
2022/09/09 01:22:24;;;;;;;28.90;20.67;;;13.90;99.90;;;;;;5068636;28;20048;-67
2022/09/09 01:25:05;;;;;;;27.88;21.27;;;13.80;99.90;;;;;;5069911;28;20159;-70
2022/09/09 01:27:33;;;;;;;33.25;22.00;;;13.90;99.90;;;;;;5069513;28;20523;-67
2022/09/09 01:29:59;;;;;;;29.10;21.70;;;13.60;99.90;;;;;;5069385;28;20050;-67
2022/09/09 01:32:49;;;;;;;29.88;22.58;;;13.60;99.90;;;;;;5070336;28;20309;-67
2022/09/09 01:35:41;;;;;;;26.13;20.77;;;13.60;99.90;;;;;;5087652;28;20047;-68
2022/09/09 01:38:07;;;;;;;28.90;21.95;;;13.60;99.90;;;;;;5088963;28;20052;-67
2022/09/09 01:40:33;;;;;;;27.55;21.45;;;13.50;99.90;;;;;;5089714;28;20092;-69
2022/09/09 01:42:59;;;;;;;28.13;22.63;;;13.70;99.90;;;;;;5089369;28;20108;-67
2022/09/09 01:45:25;;;;;;;31.10;22.23;;;13.70;99.90;;;;;;5088787;28;20063;-70
2022/09/09 01:47:52;;;;;;;28.77;19.95;;;13.60;99.90;;;;;;5087351;28;20052;-67
2022/09/09 01:50:19;;;;;;;33.42;24.10;;;13.50;99.90;;;;;;5089232;28;20719;-68
2022/09/09 01:52:51;;;;;;;31.52;21.30;;;13.70;99.90;;;;;;5089297;28;20052;-67
2022/09/09 01:55:23;;;;;;;29.70;21.35;;;13.40;99.90;;;;;;5089732;28;20062;-70
2022/09/09 01:58:13;;;;;;;27.15;19.23;;;13.60;99.90;;;;;;5088309;28;20047;-66
2022/09/09 02:00:50;;;;;;;27.05;20.33;;;13.40;99.90;;;;;;5091627;28;20439;-69
2022/09/09 02:03:36;;;;;;;27.20;19.80;;;13.50;99.90;;;;;;5072292;28;20318;-68
2022/09/09 02:06:27;;;;;;;23.80;18.58;;;13.50;99.90;;;;;;5087567;28;20818;-66
2022/09/09 02:08:56;;;;;;;26.33;19.50;;;13.40;99.90;;;;;;5091186;28;20060;-68
2022/09/09 02:11:24;;;;;;;29.52;21.50;;;13.50;99.90;;;;;;5091658;28;20058;-67
2022/09/09 02:13:54;;;;;;;29.88;21.00;;;13.40;99.90;;;;;;5091805;28;20667;-68
2022/09/09 02:16:35;;;;;;;27.92;18.50;;;13.50;99.90;;;;;;5091846;28;20454;-68
2022/09/09 02:19:08;;;;;;;24.70;19.90;;;13.40;99.90;;;;;;5091374;28;20411;-70
2022/09/09 02:21:34;;;;;;;29.65;20.10;;;13.60;99.90;;;;;;5091240;28;21082;-68
2022/09/09 02:24:04;;;;;;;26.75;20.08;;;13.50;99.90;;;;;;5091330;28;20449;-68
2022/09/09 02:26:32;;;;;;;31.58;19.88;;;13.60;99.90;;;;;;5091318;28;20043;-67
2022/09/09 02:29:02;;;;;;;32.10;19.88;;;13.70;99.90;;;;;;5091759;28;20142;-67
2022/09/09 02:31:28;;;;;;;25.48;19.95;;;13.70;99.90;;;;;;5091646;28;20044;-67
2022/09/09 02:34:00;;;;;;;25.90;18.05;;;13.60;99.90;;;;;;5090060;28;20265;-66
2022/09/09 02:36:30;;;;;;;26.42;19.30;;;13.60;99.90;;;;;;5072308;28;20534;-67
2022/09/09 02:38:56;;;;;;;25.88;17.58;;;13.60;99.90;;;;;;5076108;28;20258;-67
2022/09/09 02:41:32;;;;;;;25.27;17.15;;;13.90;99.90;;;;;;5076192;28;20047;-67
2022/09/09 02:43:58;;;;;;;23.92;17.42;;;13.90;99.90;;;;;;5074600;28;20568;-67
2022/09/09 02:46:32;;;;;;;22.50;17.67;;;13.90;99.90;;;;;;5086267;28;20051;-67
2022/09/09 02:49:25;;;;;;;24.15;17.98;;;13.70;99.90;;;;;;5073763;28;20048;-66
2022/09/09 02:52:00;;;;;;;26.92;17.85;;;13.90;99.90;;;;;;5075444;28;20337;-69
2022/09/09 02:54:32;;;;;;;25.80;18.70;;;14.00;99.90;;;;;;5075457;28;20466;-67
2022/09/09 02:57:14;;;;;;;24.30;16.52;;;14.00;99.90;;;;;;5075964;28;20044;-65
2022/09/09 02:59:40;;;;;;;25.52;17.60;;;14.00;99.90;;;;;;5075045;28;20048;-66
2022/09/09 03:02:06;;;;;;;19.52;15.60;;;14.00;99.90;;;;;;5093306;28;20052;-69
2022/09/09 03:04:31;;;;;;;21.75;15.88;;;13.80;99.90;;;;;;5094400;28;20403;-67
2022/09/09 03:06:58;;;;;;;20.83;16.30;;;13.80;99.90;;;;;;5093504;28;20059;-66
2022/09/09 03:09:25;;;;;;;20.35;15.60;;;14.10;99.90;;;;;;5094926;27;20550;-66
2022/09/09 03:11:51;;;;;;;18.48;15.90;;;13.90;99.90;;;;;;5094769;28;20047;-67
2022/09/09 03:14:20;;;;;;;18.88;14.70;;;14.10;99.90;;;;;;5093154;28;20750;-66
2022/09/09 03:16:47;;;;;;;22.77;16.75;;;14.10;99.90;;;;;;5094659;28;20047;-68
2022/09/09 03:19:12;;;;;;;18.67;14.45;;;14.00;99.90;;;;;;5094502;28;20083;-66
2022/09/09 03:21:38;;;;;;;21.02;14.98;;;14.20;99.90;;;;;;5094272;28;20087;-69
2022/09/09 03:24:04;;;;;;;20.65;15.63;;;14.10;99.90;;;;;;5095165;28;20051;-68
2022/09/09 03:26:31;;;;;;;24.00;17.58;;;13.90;99.90;;;;;;5094764;28;20047;-66
2022/09/09 03:28:57;;;;;;;19.38;16.42;;;13.90;99.90;;;;;;5093096;28;20146;-67
2022/09/09 03:31:22;;;;;;;19.48;16.13;;;14.10;99.90;;;;;;5094466;28;20574;-68
2022/09/09 03:33:48;;;;;;;23.25;15.85;;;14.20;99.90;;;;;;5094765;28;20044;-67
2022/09/09 03:36:15;;;;;;;20.15;15.32;;;14.20;99.90;;;;;;5095784;28;20055;-68
2022/09/09 03:38:41;;;;;;;23.73;15.40;;;14.10;99.90;;;;;;5095038;28;20138;-69
2022/09/09 03:41:07;;;;;;;17.63;15.43;;;14.10;99.90;;;;;;5093089;28;20051;-67
2022/09/09 03:43:33;;;;;;;20.63;15.95;;;14.00;99.90;;;;;;5092155;28;20043;-68
2022/09/09 03:45:59;;;;;;;17.65;14.40;;;14.10;99.90;;;;;;5092303;28;20100;-67
2022/09/09 03:48:27;;;;;;;25.08;17.20;;;14.00;99.90;;;;;;5079071;28;20479;-66
2022/09/09 03:50:55;;;;;;;18.77;15.95;;;14.20;99.90;;;;;;5074721;28;20047;-67
2022/09/09 03:53:24;;;;;;;23.02;16.20;;;14.00;99.90;;;;;;5072427;28;20036;-67
2022/09/09 03:55:54;;;;;;;19.92;14.38;;;14.00;99.90;;;;;;5074568;28;20039;-69
2022/09/09 03:58:21;;;;;;;18.73;15.70;;;14.20;99.90;;;;;;5089201;28;20071;-66
2022/09/09 04:00:58;;;;;;;19.75;16.65;;;14.20;99.90;;;;;;5093579;28;20469;-67
2022/09/09 04:03:25;;;;;;;21.52;15.60;;;14.00;99.90;;;;;;5092162;28;20068;-67
2022/09/09 04:05:52;;;;;;;19.42;14.85;;;14.00;99.90;;;;;;5091493;28;20708;-69
2022/09/09 04:08:19;;;;;;;19.60;14.30;;;14.10;99.90;;;;;;5090940;28;20062;-68
2022/09/09 04:10:46;;;;;;;20.85;14.52;;;14.20;99.90;;;;;;5090399;28;20593;-69
2022/09/09 04:13:15;;;;;;;18.90;13.32;;;14.10;99.90;;;;;;5090699;27;20043;-66
2022/09/09 04:15:41;;;;;;;16.88;12.25;;;14.10;99.90;;;;;;5079209;28;20469;-66
2022/09/09 04:18:06;;;;;;;19.33;12.45;;;14.20;99.90;;;;;;5072471;28;20466;-67
2022/09/09 04:20:32;;;;;;;16.80;13.02;;;14.20;99.90;;;;;;5071655;28;20039;-66
2022/09/09 04:22:58;;;;;;;19.05;12.48;;;14.30;99.90;;;;;;5071388;28;20047;-66
2022/09/09 04:25:24;;;;;;;14.05;11.82;;;14.30;99.90;;;;;;5071016;28;20672;-67
2022/09/09 04:27:57;;;;;;;16.33;10.70;;;14.10;99.90;;;;;;5052890;28;20060;-67
2022/09/09 04:30:24;;;;;;;15.48;11.13;;;14.20;99.90;;;;;;5071275;28;20055;-67
2022/09/09 04:32:50;;;;;;;16.25;10.77;;;14.40;99.90;;;;;;5069664;28;20506;-67
2022/09/09 04:35:16;;;;;;;17.02;10.55;;;14.30;99.90;;;;;;5070969;28;20048;-67
2022/09/09 04:37:42;;;;;;;15.00;9.93;;;14.40;99.90;;;;;;5070603;28;20593;-67
2022/09/09 04:40:09;;;;;;;15.07;8.68;;;14.20;99.90;;;;;;5070490;28;20566;-68
2022/09/09 04:42:39;;;;;;;11.63;7.82;;;14.20;99.90;;;;;;5079330;28;20131;-68
2022/09/09 04:45:06;;;;;;;13.35;8.18;;;14.50;99.90;;;;;;5070086;28;20308;-70
2022/09/09 04:47:35;;;;;;;14.00;7.78;;;14.50;99.90;;;;;;5070718;28;20048;-68
2022/09/09 04:50:01;;;;;;;12.23;6.88;;;14.50;99.90;;;;;;5089636;28;20047;-67
2022/09/09 04:52:27;;;;;;;10.15;7.15;;;14.30;99.90;;;;;;5089932;28;20087;-68
2022/09/09 04:54:53;;;;;;;12.13;6.65;;;14.40;99.90;;;;;;5089938;28;20588;-67
2022/09/09 04:57:19;;;;;;;10.50;5.53;;;14.60;99.90;;;;;;5089663;27;20522;-66
2022/09/09 04:59:45;;;;;;;11.15;5.85;;;14.40;99.90;;;;;;5084004;28;20192;-67
2022/09/09 05:02:11;;;;;;;9.80;4.72;;;14.70;99.90;;;;;;5070411;28;20181;-67
2022/09/09 05:04:37;;;;;;;9.10;4.65;;;14.70;99.90;;;;;;5070076;28;20088;-70
2022/09/09 05:07:03;;;;;;;8.65;3.60;;;14.50;99.90;;;;;;5070630;28;20477;-67
2022/09/09 05:09:29;;;;;;;8.95;3.63;;;14.70;99.90;;;;;;5076641;28;20051;-67
2022/09/09 05:11:55;;;;;;;10.07;3.83;;;14.50;99.90;;;;;;5075163;28;20936;-68
2022/09/09 05:14:22;;;;;;;11.20;4.35;;;14.70;99.90;;;;;;5079722;28;20552;-68
2022/09/09 05:16:49;;;;;;;13.48;5.05;;;14.70;99.90;;;;;;5090240;28;20130;-69
2022/09/09 05:19:15;;;;;;;13.98;5.82;;;14.60;99.90;;;;;;5081453;28;20531;-67
2022/09/09 05:21:41;;;;;;;11.40;5.03;;;14.60;99.90;;;;;;5091666;28;20636;-67
2022/09/09 05:24:07;;;;;;;12.80;5.32;;;14.50;99.90;;;;;;5091503;28;20104;-67
2022/09/09 05:26:33;;;;;;;12.95;5.32;;;14.70;99.90;;;;;;5073328;28;20048;-69
2022/09/09 05:29:00;;;;;;;11.02;5.72;;;14.70;99.90;;;;;;5070898;28;20090;-68
2022/09/09 05:31:27;;;;;;;11.68;6.57;;;14.70;99.90;;;;;;5069016;28;20181;-67
2022/09/09 05:33:53;;;;;;;13.43;7.13;;;14.70;99.90;;;;;;5089859;28;20044;-67
2022/09/09 05:36:21;;;;;;;10.00;6.53;;;14.50;99.90;;;;;;5091553;28;20058;-67
2022/09/09 05:38:47;;;;;;;10.77;6.50;;;14.70;99.90;;;;;;5090130;28;20486;-67
2022/09/09 05:41:17;;;;;;;11.45;7.03;;;14.70;99.90;;;;;;5072561;28;20516;-67
2022/09/09 05:43:44;;;;;;;12.85;7.80;;;14.40;99.90;;;;;;5072518;28;20051;-69
2022/09/09 05:46:21;;;;;;;13.90;7.32;;;14.60;99.90;;;;;;5077215;28;20048;-66
2022/09/09 05:48:50;;;;;;;12.88;7.97;;;14.60;99.90;;;;;;5070368;28;20089;-69
2022/09/09 05:51:22;;;;;;;13.05;8.50;;;14.40;99.90;;;;;;5069443;28;20132;-68
2022/09/09 05:53:48;;;;;;;18.08;8.85;;;14.50;99.90;;;;;;5075442;28;20246;-66
2022/09/09 05:56:20;;;;;;;14.98;9.48;;;14.50;99.90;;;;;;5090851;28;20085;-68
2022/09/09 05:58:47;;;;;;;13.38;9.73;;;14.40;99.90;;;;;;5091480;28;20054;-67
2022/09/09 06:01:18;;;;;;;14.95;10.60;;;14.40;99.90;;;;;;5090595;28;20144;-68
2022/09/09 06:03:45;;;;;;;17.80;10.52;;;14.70;99.90;;;;;;5080999;28;20414;-67
2022/09/09 06:06:14;;;;;;;15.23;10.70;;;14.40;99.90;;;;;;5083370;28;20048;-69
2022/09/09 06:08:44;;;;;;;21.77;12.73;;;14.40;99.90;;;;;;5086132;28;20203;-69
2022/09/09 06:11:21;;;;;;;21.40;12.85;;;14.40;99.90;;;;;;5078000;28;21102;-68
2022/09/09 06:13:50;;;;;;;19.08;12.93;;;14.70;99.90;;;;;;5095335;28;20043;-66
2022/09/09 06:16:17;;;;;;;20.52;13.50;;;14.70;99.90;;;;;;5096100;28;20462;-69
2022/09/09 06:18:44;;;;;;;16.85;11.63;;;14.60;99.90;;;;;;5095541;28;20051;-71
2022/09/09 06:21:18;;;;;;;16.13;11.70;;;14.70;99.90;;;;;;5095256;28;20257;-69
2022/09/09 06:23:44;;;;;;;19.10;13.48;;;14.60;99.90;;;;;;5095343;28;20691;-73
2022/09/09 06:26:17;;;;;;;15.65;12.73;;;14.50;99.90;;;;;;5093567;28;20048;-68
2022/09/09 06:28:45;;;;;;;16.92;11.98;;;14.60;99.90;;;;;;5095751;28;20617;-68
2022/09/09 06:31:13;;;;;;;16.42;11.68;;;14.50;99.90;;;;;;5095051;28;20048;-68
2022/09/09 06:33:41;;;;;;;17.60;12.27;;;14.60;99.90;;;;;;5095139;28;20189;-68
2022/09/09 06:36:23;;;;;;;16.67;10.95;;;14.60;99.90;;;;;;5094762;28;20261;-68
2022/09/09 06:38:49;;;;;;;18.03;12.30;;;14.60;99.90;;;;;;5075295;28;20056;-68
2022/09/09 06:41:18;;;;;;;17.52;11.38;;;14.60;99.90;;;;;;5075679;28;20799;-68
2022/09/09 06:43:44;;;;;;;15.00;10.38;;;14.60;99.90;;;;;;5079209;28;20262;-67
2022/09/09 06:46:11;;;;;;;15.10;11.65;;;14.80;99.90;;;;;;5095016;28;20238;-67
2022/09/09 06:48:40;;;;;;;14.98;9.75;;;14.80;99.90;;;;;;5094677;28;20432;-69
2022/09/09 06:51:11;;;;;;;12.57;9.02;;;14.90;99.90;;;;;;5094996;28;20126;-68
2022/09/09 06:53:38;;;;;;;14.35;9.27;;;14.70;99.90;;;;;;5094636;27;20055;-68
2022/09/09 06:56:10;;;;;;;12.23;9.38;;;14.90;99.90;;;;;;5094283;28;20043;-68
2022/09/09 06:58:43;;;;;;;13.45;9.15;;;14.90;99.90;;;;;;5094780;28;20047;-69
2022/09/09 07:01:15;;;;;;;11.38;8.60;;;15.10;99.90;;;;;;5094891;28;20051;-67
2022/09/09 07:03:42;;;;;;;14.25;9.05;;;15.00;99.90;;;;;;5094671;28;20054;-69
2022/09/09 07:06:14;;;;;;;12.02;9.23;;;15.00;99.90;;;;;;5094369;28;20534;-67
2022/09/09 07:08:40;;;;;;;12.00;9.13;;;15.40;99.90;;;;;;5094325;28;20047;-68
2022/09/09 07:11:07;;;;;;;15.45;10.35;;;15.50;99.90;;;;;;5093600;28;20443;-68
2022/09/09 07:13:33;;;;;;;11.88;8.63;;;15.50;99.90;;;;;;5095167;28;20074;-69
2022/09/09 07:16:07;;;;;;;11.95;8.45;;;15.30;99.90;;;;;;5092924;28;20058;-68
2022/09/09 07:18:34;;;;;;;10.90;8.48;;;15.60;99.90;;;;;;5094320;28;20066;-68
2022/09/09 07:21:01;;;;;;;12.43;9.30;;;15.70;99.90;;;;;;5094058;28;20549;-66
2022/09/09 07:23:28;;;;;;;13.90;7.60;;;15.70;99.90;;;;;;5093991;28;20680;-67
2022/09/09 07:25:54;;;;;;;9.95;8.35;;;15.70;99.90;;;;;;5095086;28;20709;-68
2022/09/09 07:28:22;;;;;;;10.68;8.07;;;16.00;99.90;;;;;;5096835;28;20040;-67
2022/09/09 07:31:01;;;;;;;10.45;7.40;;;15.90;99.90;;;;;;5095899;28;20056;-71
2022/09/09 07:33:26;;;;;;;10.15;7.05;;;16.30;99.90;;;;;;5096193;28;20366;-70
2022/09/09 07:35:52;;;;;;;10.15;6.75;;;16.20;99.90;;;;;;5094371;28;20051;-70
2022/09/09 07:38:20;;;;;;;8.95;6.60;;;16.40;99.90;;;;;;5095120;28;20086;-68
2022/09/09 07:40:46;;;;;;;9.45;6.15;;;16.60;99.90;;;;;;5094821;28;20065;-68
2022/09/09 07:43:11;;;;;;;8.77;5.93;;;16.70;99.90;;;;;;5094612;28;20610;-68
2022/09/09 07:45:38;;;;;;;8.23;6.63;;;17.10;99.90;;;;;;5094933;28;20047;-69
2022/09/09 07:48:05;;;;;;;6.45;5.30;;;17.40;99.90;;;;;;5095943;28;20055;-70
2022/09/09 07:50:31;;;;;;;5.28;4.70;;;17.60;99.90;;;;;;5094418;28;20066;-70
2022/09/09 07:52:57;;;;;;;8.23;4.90;;;18.00;99.90;;;;;;5094767;28;20047;-68
2022/09/09 07:55:26;;;;;;;7.55;4.47;;;18.50;99.90;;;;;;5094047;28;20126;-66
2022/09/09 07:57:53;;;;;;;8.02;4.18;;;19.00;99.90;;;;;;5093542;28;20089;-67
2022/09/09 08:00:21;;;;;;;8.60;4.45;;;18.60;99.90;;;;;;5093424;28;20561;-67
2022/09/09 08:02:48;;;;;;;4.88;4.20;;;18.30;99.90;;;;;;5093660;28;20113;-67
2022/09/09 08:05:14;;;;;;;6.72;4.03;;;18.00;99.90;;;;;;5094982;28;20592;-67
2022/09/09 08:07:40;;;;;;;6.68;4.38;;;17.90;99.90;;;;;;5097403;28;20043;-68
2022/09/09 08:10:06;;;;;;;7.50;4.85;;;17.50;99.90;;;;;;5094687;28;20047;-67
2022/09/09 08:12:32;;;;;;;5.63;4.25;;;17.60;99.90;;;;;;5092539;28;20104;-70
2022/09/09 08:14:58;;;;;;;5.70;4.45;;;17.50;99.90;;;;;;5093452;28;20648;-68
2022/09/09 08:17:23;;;;;;;8.50;5.30;;;17.30;99.90;;;;;;5091886;28;20051;-68
2022/09/09 08:19:49;;;;;;;6.55;4.68;;;17.40;99.90;;;;;;5091981;28;20058;-68
2022/09/09 08:22:15;;;;;;;8.10;4.53;;;17.30;99.90;;;;;;5094222;28;20285;-69
2022/09/09 08:24:40;;;;;;;6.25;4.75;;;17.50;99.90;;;;;;5092975;28;20053;-69
2022/09/09 08:27:06;;;;;;;5.43;3.80;;;17.50;99.90;;;;;;5094188;27;20051;-66
2022/09/09 08:29:32;;;;;;;5.60;4.13;;;17.70;99.90;;;;;;5094304;28;20059;-67
2022/09/09 08:31:59;;;;;;;7.85;3.88;;;18.20;99.90;;;;;;5092680;28;20069;-68
2022/09/09 08:34:26;;;;;;;6.47;4.03;;;18.40;99.90;;;;;;5092970;28;20570;-67
2022/09/09 08:36:52;;;;;;;6.03;3.60;;;18.40;99.90;;;;;;5094163;28;20139;-68
2022/09/09 08:39:20;;;;;;;4.57;3.35;;;18.70;99.90;;;;;;5092932;28;20599;-68
2022/09/09 08:42:13;;;;;;;3.72;2.85;;;18.80;99.90;;;;;;5092917;28;20047;-68
2022/09/09 08:44:58;;;;;;;6.10;2.95;;;18.80;99.90;;;;;;5090892;28;20854;-68
2022/09/09 08:47:39;;;;;;;5.85;3.35;;;18.80;99.90;;;;;;5091158;28;20054;-67
2022/09/09 08:50:21;;;;;;;5.75;2.90;;;19.20;99.90;;;;;;5073670;28;20687;-68
2022/09/09 08:53:07;;;;;;;4.27;2.63;;;20.00;99.90;;;;;;5072885;28;20062;-67
2022/09/09 08:55:45;;;;;;;7.07;3.10;;;20.20;99.90;;;;;;5073113;28;20115;-69
2022/09/09 08:58:15;;;;;;;6.07;2.92;;;20.30;99.90;;;;;;5073570;28;20051;-68
2022/09/09 09:01:19;;;;;;;4.70;2.58;;;20.30;99.90;;;;;;5073034;28;20056;-68
2022/09/09 09:04:17;;;;;;;5.35;2.78;;;20.20;99.90;;;;;;5071611;28;20608;-67
2022/09/09 09:06:54;;;;;;;5.60;2.80;;;20.20;99.90;;;;;;5051566;28;20162;-68
2022/09/09 09:09:41;;;;;;;5.20;2.42;;;19.90;99.90;;;;;;5073276;28;20143;-66
2022/09/09 09:12:20;;;;;;;4.80;2.38;;;19.50;99.90;;;;;;5073082;28;20590;-68
2022/09/09 09:14:48;;;;;;;6.07;2.50;;;19.50;99.90;;;;;;5072783;28;20380;-68
2022/09/09 09:17:20;;;;;;;5.13;2.40;;;19.40;99.90;;;;;;5073274;28;20218;-69
2022/09/09 09:19:47;;;;;;;5.75;2.30;;;19.20;99.90;;;;;;5072690;28;20431;-67
2022/09/09 09:22:28;;;;;;;3.58;1.80;;;19.10;99.90;;;;;;5073008;28;20503;-70
2022/09/09 09:25:12;;;;;;;4.55;2.53;;;18.90;99.90;;;;;;5086401;28;20040;-67
2022/09/09 09:28:05;;;;;;;6.85;3.08;;;18.80;99.90;;;;;;5092323;28;20047;-69
2022/09/09 09:30:49;;;;;;;5.15;2.78;;;18.80;99.90;;;;;;5069516;28;20173;-67
2022/09/09 09:33:49;;;;;;;5.53;2.00;;;18.90;99.90;;;;;;5091196;28;20050;-70
2022/09/09 09:36:15;;;;;;;6.78;2.25;;;18.70;99.90;;;;;;5089164;28;20126;-70
2022/09/09 09:38:56;;;;;;;6.07;2.60;;;18.80;99.90;;;;;;5084371;28;20414;-68
2022/09/09 09:41:41;;;;;;;7.35;2.42;;;19.00;99.90;;;;;;5089340;28;20044;-70
2022/09/09 09:44:26;;;;;;;5.78;2.80;;;19.00;99.90;;;;;;5069627;28;20059;-67
2022/09/09 09:46:53;;;;;;;4.47;2.53;;;19.20;99.90;;;;;;5069615;28;20075;-69
2022/09/09 09:49:18;;;;;;;6.47;2.47;;;19.40;99.90;;;;;;5069616;28;20044;-69
2022/09/09 09:51:44;;;;;;;6.55;3.08;;;19.60;99.90;;;;;;5069893;28;20250;-67
2022/09/09 09:54:13;;;;;;;6.18;2.80;;;19.60;99.90;;;;;;5068777;28;20048;-67
2022/09/09 09:56:40;;;;;;;5.30;2.47;;;19.30;99.90;;;;;;5070134;28;20044;-68
2022/09/09 09:59:19;;;;;;;4.72;2.42;;;19.40;99.90;;;;;;5070371;28;20040;-69
2022/09/09 10:01:45;;;;;;;5.10;2.50;;;19.20;99.90;;;;;;5085887;28;20043;-68
2022/09/09 10:04:23;;;;;;;6.95;2.45;;;19.30;99.90;;;;;;5089283;28;20074;-69
2022/09/09 10:06:49;;;;;;;3.92;2.20;;;19.40;99.90;;;;;;5089990;28;20090;-71
2022/09/09 10:09:26;;;;;;;7.80;2.17;;;19.70;99.90;;;;;;5089389;28;20122;-68
2022/09/09 10:11:55;;;;;;;5.68;2.00;;;19.80;99.90;;;;;;5070774;28;20040;-67
2022/09/09 10:14:24;;;;;;;4.70;1.85;;;19.90;99.90;;;;;;5069559;28;20154;-66
2022/09/09 10:17:04;;;;;;;6.38;1.55;;;19.80;99.90;;;;;;5069997;28;20051;-68
2022/09/09 10:19:32;;;;;;;5.13;1.65;;;20.10;99.90;;;;;;5074784;28;20597;-67
2022/09/09 10:22:16;;;;;;;5.95;2.00;;;20.40;99.90;;;;;;5088106;28;20047;-68
2022/09/09 10:24:59;;;;;;;6.28;1.30;;;20.50;99.90;;;;;;5089571;28;20044;-68
2022/09/09 10:27:25;;;;;;;7.72;2.05;;;21.20;99.90;;;;;;5080592;28;20105;-67
2022/09/09 10:30:02;;;;;;;6.28;1.60;;;21.30;99.90;;;;;;5088503;28;20581;-68
2022/09/09 10:32:48;;;;;;;6.28;1.58;;;20.90;99.90;;;;;;5078237;28;20166;-69
2022/09/09 10:35:31;;;;;;;6.55;1.40;;;21.30;99.90;;;;;;5091414;28;20096;-70
2022/09/09 10:38:33;;;;;;;10.23;1.50;;;21.30;99.90;;;;;;5069859;28;20054;-65
2022/09/09 10:41:10;;;;;;;6.18;1.20;;;20.50;99.90;;;;;;5045969;28;20431;-67
2022/09/09 10:43:53;;;;;;;9.30;1.40;;;20.30;99.90;;;;;;5066514;28;20147;-67
2022/09/09 10:46:38;;;;;;;7.28;1.38;;;19.90;99.90;;;;;;5070876;28;20048;-67
2022/09/09 10:49:25;;;;;;;8.65;1.35;;;19.80;99.90;;;;;;5072160;28;20142;-69
2022/09/09 10:52:00;;;;;;;5.07;1.08;;;20.00;99.90;;;;;;5071130;28;20574;-68
2022/09/09 10:55:02;;;;;;;7.05;1.00;;;20.20;99.90;;;;;;5069534;28;20044;-68
2022/09/09 10:57:39;;;;;;;6.65;1.00;;;20.30;99.90;;;;;;5070711;28;20468;-70
2022/09/09 11:00:14;;;;;;;7.95;1.05;;;20.40;99.90;;;;;;5072437;28;20135;-70
2022/09/09 11:02:41;;;;;;;7.75;1.02;;;21.00;99.90;;;;;;5072480;28;20283;-68
2022/09/09 11:05:27;;;;;;;7.22;1.08;;;21.70;99.90;;;;;;5072563;28;20550;-67
2022/09/09 11:07:58;;;;;;;7.00;0.70;;;22.30;99.90;;;;;;5072415;28;20051;-67
2022/09/09 11:10:48;;;;;;;7.63;0.98;;;22.70;99.90;;;;;;5070700;28;20123;-67
2022/09/09 11:13:36;;;;;;;9.45;1.45;;;23.40;99.90;;;;;;5072856;28;20063;-70
2022/09/09 11:16:23;;;;;;;6.20;0.90;;;23.70;99.90;;;;;;5070570;28;20128;-69
2022/09/09 11:18:49;;;;;;;8.80;0.90;;;23.50;99.90;;;;;;5072521;28;20056;-68
2022/09/09 11:21:25;;;;;;;7.00;1.10;;;23.70;99.90;;;;;;5072220;28;20371;-70
2022/09/09 11:24:09;;;;;;;6.78;0.90;;;23.20;99.90;;;;;;5072136;28;20052;-68
2022/09/09 11:26:45;;;;;;;6.28;1.23;;;22.50;99.90;;;;;;5071896;28;20040;-67
2022/09/09 11:29:44;;;;;;;8.95;1.00;;;22.40;99.90;;;;;;5076430;28;20055;-68
2022/09/09 11:32:40;;;;;;;6.63;0.73;;;23.10;99.90;;;;;;5091575;28;20050;-67
2022/09/09 11:35:26;;;;;;;4.80;0.80;;;23.80;99.90;;;;;;5092193;28;20773;-68
2022/09/09 11:38:02;;;;;;;4.43;0.52;;;23.40;99.90;;;;;;5093315;28;20586;-71
2022/09/09 11:40:30;;;;;;;6.68;0.75;;;23.10;99.90;;;;;;5092974;28;20047;-68
2022/09/09 11:43:12;;;;;;;7.95;1.02;;;22.80;99.90;;;;;;5093903;28;20050;-68
2022/09/09 11:45:41;;;;;;;6.32;0.82;;;22.40;99.90;;;;;;5093762;28;20040;-68
2022/09/09 11:48:27;;;;;;;7.20;0.90;;;22.60;99.90;;;;;;5076206;28;20051;-68
2022/09/09 11:51:04;;;;;;;6.32;0.73;;;22.90;99.90;;;;;;5092673;28;20341;-67
2022/09/09 11:53:31;;;;;;;7.38;0.93;;;23.10;99.90;;;;;;5091895;28;20418;-68
2022/09/09 11:56:52;;;;;;;3.78;0.50;;;22.90;99.90;;;;;;5070980;28;20121;-67
2022/09/09 11:59:45;;;;;;;5.68;0.50;;;22.70;99.90;;;;;;5058583;28;20059;-66
2022/09/09 12:02:22;;;;;;;3.55;0.50;;;22.50;99.90;;;;;;5070852;28;20044;-68
2022/09/09 12:05:21;;;;;;;5.28;0.70;;;22.30;99.90;;;;;;5071460;28;20048;-68
2022/09/09 12:07:55;;;;;;;7.60;0.70;;;22.60;99.90;;;;;;5047268;28;20052;-68
2022/09/09 12:10:27;;;;;;;5.25;0.73;;;23.30;99.90;;;;;;5070301;28;20062;-68
2022/09/09 12:12:53;;;;;;;4.50;0.50;;;23.30;99.90;;;;;;5071779;28;20040;-67
2022/09/09 12:15:22;;;;;;;3.85;0.40;;;23.10;99.90;;;;;;5070981;28;20040;-70
2022/09/09 12:17:54;;;;;;;3.80;0.50;;;23.10;99.90;;;;;;5069495;28;20621;-70
2022/09/09 12:20:35;;;;;;;6.20;0.80;;;23.70;99.90;;;;;;5071102;28;20075;-69
2022/09/09 12:23:23;;;;;;;4.85;0.50;;;23.80;99.90;;;;;;5071317;28;20462;-68
2022/09/09 12:25:54;;;;;;;4.00;0.40;;;23.90;99.90;;;;;;5083630;28;20497;-69
2022/09/09 12:28:40;;;;;;;4.13;0.47;;;24.30;99.90;;;;;;5070468;28;20067;-67
2022/09/09 12:31:07;;;;;;;5.00;0.40;;;24.20;99.90;;;;;;5080828;28;20043;-67
2022/09/09 12:33:43;;;;;;;4.78;0.68;;;24.20;99.90;;;;;;5090176;28;20047;-68
2022/09/09 12:36:32;;;;;;;3.55;0.50;;;23.60;99.90;;;;;;5089310;28;20059;-66
2022/09/09 12:39:16;;;;;;;3.15;0.55;;;22.80;99.90;;;;;;5090226;28;20495;-69
2022/09/09 12:41:50;;;;;;;5.70;0.47;;;22.10;99.90;;;;;;5091374;28;20055;-67
2022/09/09 12:44:16;;;;;;;6.13;0.60;;;21.80;99.90;;;;;;5089511;28;20595;-68
2022/09/09 12:46:45;;;;;;;5.88;0.60;;;21.50;99.90;;;;;;5090315;28;20044;-70
2022/09/09 12:49:41;;;;;;;4.35;0.70;;;21.20;99.90;;;;;;5089801;28;20075;-69
2022/09/09 12:52:33;;;;;;;3.28;0.40;;;20.90;99.90;;;;;;5080320;27;20300;-68
2022/09/09 12:55:01;;;;;;;5.07;0.50;;;20.80;99.90;;;;;;5088739;28;20275;-70
2022/09/09 12:57:34;;;;;;;3.90;0.55;;;20.50;99.90;;;;;;5089594;28;20043;-67
2022/09/09 13:00:08;;;;;;;5.55;0.40;;;20.20;99.90;;;;;;5069365;28;20044;-67
2022/09/09 13:02:34;;;;;;;3.88;0.50;;;20.00;99.90;;;;;;5070503;28;20414;-69
2022/09/09 13:05:36;;;;;;;6.88;0.57;;;20.00;99.90;;;;;;5069793;28;20051;-70
2022/09/09 13:08:09;;;;;;;4.45;0.40;;;20.10;99.90;;;;;;5060162;28;20104;-68
2022/09/09 13:10:59;;;;;;;3.72;0.60;;;20.10;99.90;;;;;;5070040;28;20271;-67